createdAt,value
2018-09-30T00:00:38.686Z,9.07
2018-09-30T00:03:06.996Z,9.37
2018-09-30T00:05:35.296Z,8.70
2018-09-30T00:08:03.610Z,8.40
2018-09-30T00:10:31.928Z,9.90
2018-09-30T00:13:00.221Z,6.90
2018-09-30T00:15:28.519Z,9.17
2018-09-30T00:17:56.836Z,8.53
2018-09-30T00:20:25.122Z,7.87
2018-09-30T00:22:53.403Z,12.67
2018-09-30T00:25:27.072Z,11.10
2018-09-30T00:27:55.351Z,7.30
2018-09-30T00:30:23.661Z,10.20
2018-09-30T00:32:51.963Z,9.90
2018-09-30T00:35:20.260Z,8.33
2018-09-30T00:37:48.558Z,8.93
2018-09-30T00:40:16.922Z,7.97
2018-09-30T00:42:45.200Z,8.17
2018-09-30T00:45:13.571Z,10.17
2018-09-30T00:47:41.840Z,8.87
2018-09-30T00:50:10.126Z,11.90
2018-09-30T00:52:38.474Z,7.43
2018-09-30T00:55:06.770Z,12.43
2018-09-30T00:57:35.105Z,9.10
2018-09-30T01:00:03.442Z,9.53
2018-09-30T01:02:31.738Z,8.37
2018-09-30T01:05:00.033Z,8.50
2018-09-30T01:07:28.322Z,8.73
2018-09-30T01:09:56.626Z,6.53
2018-09-30T01:12:24.902Z,9.33
2018-09-30T01:14:53.201Z,7.60
2018-09-30T01:17:21.479Z,9.47
2018-09-30T01:19:49.759Z,10.50
2018-09-30T01:22:18.066Z,9.27
2018-09-30T01:24:46.390Z,9.50
2018-09-30T01:27:14.687Z,7.30
2018-09-30T01:29:43.032Z,8.47
2018-09-30T01:32:11.311Z,12.07
2018-09-30T01:34:39.611Z,7.30
2018-09-30T01:37:07.921Z,7.77
2018-09-30T01:39:36.281Z,8.67
2018-09-30T01:42:04.529Z,14.03
2018-09-30T01:44:32.803Z,8.80
2018-09-30T01:47:01.069Z,8.50
2018-09-30T01:49:29.377Z,12.17
2018-09-30T01:52:08.901Z,7.70
2018-09-30T01:54:37.278Z,7.77
2018-09-30T01:57:05.639Z,11.70
2018-09-30T01:59:33.911Z,6.13
2018-09-30T02:02:02.184Z,9.87
2018-09-30T02:04:30.488Z,7.77
2018-09-30T02:06:58.811Z,8.67
2018-09-30T02:09:27.144Z,13.80
2018-09-30T02:11:55.412Z,8.97
2018-09-30T02:14:23.695Z,9.23
2018-09-30T02:16:52.009Z,8.17
2018-09-30T02:19:20.296Z,5.77
2018-09-30T02:21:48.597Z,10.20
2018-09-30T02:24:16.906Z,8.13
2018-09-30T02:26:45.169Z,7.70
2018-09-30T02:29:13.427Z,8.47
2018-09-30T02:31:41.728Z,7.10
2018-09-30T02:34:10.024Z,9.87
2018-09-30T02:36:38.374Z,6.27
2018-09-30T02:39:07.091Z,9.10
2018-09-30T02:41:35.362Z,13.23
2018-09-30T02:44:03.958Z,9.00
2018-09-30T02:46:32.228Z,12.27
2018-09-30T02:49:00.546Z,7.43
2018-09-30T02:51:31.420Z,6.43
2018-09-30T02:53:59.684Z,7.27
2018-09-30T02:56:27.981Z,7.47
2018-09-30T02:58:56.284Z,7.97
2018-09-30T03:01:24.578Z,9.13
2018-09-30T03:03:52.848Z,9.23
2018-09-30T03:06:26.337Z,10.47
2018-09-30T03:09:00.015Z,9.43
2018-09-30T03:11:28.311Z,6.10
2018-09-30T03:13:56.674Z,9.67
2018-09-30T03:16:24.981Z,8.20
2018-09-30T03:18:53.275Z,6.43
2018-09-30T03:21:21.560Z,7.03
2018-09-30T03:23:49.836Z,6.87
2018-09-30T03:26:18.218Z,6.70
2018-09-30T03:28:46.523Z,7.70
2018-09-30T03:31:14.807Z,15.27
2018-09-30T03:33:43.079Z,6.77
2018-09-30T03:36:11.355Z,8.40
2018-09-30T03:38:39.632Z,7.83
2018-09-30T03:41:07.903Z,9.23
2018-09-30T03:43:36.176Z,7.33
2018-09-30T03:46:04.727Z,5.63
2018-09-30T03:48:33.119Z,8.93
2018-09-30T03:51:01.407Z,8.73
2018-09-30T03:53:29.680Z,12.43
2018-09-30T03:55:57.980Z,6.53
2018-09-30T03:58:26.361Z,8.20
2018-09-30T04:00:54.594Z,9.33
2018-09-30T04:03:22.928Z,12.23
2018-09-30T04:05:51.230Z,8.70
2018-09-30T04:08:19.492Z,8.10
2018-09-30T04:10:47.776Z,7.23
2018-09-30T04:13:16.037Z,8.97
2018-09-30T04:15:44.340Z,7.13
2018-09-30T04:18:12.592Z,9.07
2018-09-30T04:20:40.880Z,7.77
2018-09-30T04:23:09.140Z,8.30
2018-09-30T04:25:37.565Z,7.83
2018-09-30T04:28:05.846Z,7.27
2018-09-30T04:30:34.137Z,5.50
2018-09-30T04:33:02.942Z,5.83
2018-09-30T04:35:31.160Z,6.77
2018-09-30T04:37:59.462Z,7.63
2018-09-30T04:40:27.762Z,12.33
2018-09-30T04:42:55.996Z,10.17
2018-09-30T04:45:24.317Z,9.47
2018-09-30T04:47:52.589Z,9.27
2018-09-30T04:50:20.840Z,6.67
2018-09-30T04:52:49.236Z,7.77
2018-09-30T04:55:17.672Z,8.00
2018-09-30T04:57:46.192Z,5.77
2018-09-30T05:00:14.518Z,6.73
2018-09-30T05:02:42.807Z,6.17
2018-09-30T05:05:11.137Z,8.40
2018-09-30T05:07:39.413Z,8.03
2018-09-30T05:10:07.742Z,7.50
2018-09-30T05:12:36.036Z,6.30
2018-09-30T05:15:04.344Z,8.77
2018-09-30T05:17:32.963Z,8.90
2018-09-30T05:20:01.236Z,7.53
2018-09-30T05:22:29.510Z,7.90
2018-09-30T05:24:57.812Z,7.07
2018-09-30T05:27:26.084Z,6.67
2018-09-30T05:29:54.387Z,8.03
2018-09-30T05:32:22.675Z,8.60
2018-09-30T05:34:50.935Z,5.83
2018-09-30T05:37:19.207Z,5.50
2018-09-30T05:39:54.096Z,6.93
2018-09-30T05:42:22.392Z,7.20
2018-09-30T05:44:50.650Z,7.70
2018-09-30T05:47:18.936Z,6.20
2018-09-30T05:49:47.226Z,5.73
2018-09-30T05:52:15.502Z,6.33
2018-09-30T05:54:43.780Z,6.40
2018-09-30T05:57:12.073Z,5.93
2018-09-30T05:59:40.398Z,7.80
2018-09-30T06:02:08.724Z,6.27
2018-09-30T06:04:36.980Z,7.97
2018-09-30T06:07:05.336Z,7.33
2018-09-30T06:09:33.667Z,9.27
2018-09-30T06:12:01.935Z,9.73
2018-09-30T06:14:30.313Z,6.47
2018-09-30T06:16:58.707Z,7.50
2018-09-30T06:19:26.968Z,8.80
2018-09-30T06:21:55.304Z,8.60
2018-09-30T06:24:23.586Z,9.77
2018-09-30T06:26:51.889Z,7.77
2018-09-30T06:29:20.203Z,12.70
2018-09-30T06:31:48.522Z,11.07
2018-09-30T06:34:16.790Z,6.30
2018-09-30T06:36:45.205Z,7.20
2018-09-30T06:39:13.584Z,8.67
2018-09-30T06:41:41.855Z,8.17
2018-09-30T06:44:10.169Z,8.40
2018-09-30T06:46:38.861Z,6.53
2018-09-30T06:49:07.273Z,7.40
2018-09-30T06:51:35.585Z,6.03
2018-09-30T06:54:04.254Z,8.10
2018-09-30T06:56:32.646Z,10.40
2018-09-30T07:01:51.938Z,7.17
2018-09-30T07:04:20.269Z,7.33
2018-09-30T07:06:48.702Z,8.20
2018-09-30T07:09:17.129Z,5.93
2018-09-30T07:11:45.463Z,8.57
2018-09-30T07:14:13.813Z,14.77
2018-09-30T07:16:42.244Z,7.93
2018-09-30T07:19:10.532Z,7.27
2018-09-30T07:21:38.880Z,8.93
2018-09-30T07:24:07.250Z,7.77
2018-09-30T07:26:35.567Z,6.50
2018-09-30T07:29:03.914Z,5.07
2018-09-30T07:31:32.320Z,4.07
2018-09-30T07:34:00.711Z,6.90
2018-09-30T07:36:29.072Z,4.17
2018-09-30T07:38:57.420Z,4.40
2018-09-30T07:41:25.759Z,4.87
2018-09-30T07:43:54.183Z,7.70
2018-09-30T07:46:22.481Z,7.37
2018-09-30T07:48:50.875Z,6.83
2018-09-30T07:51:19.203Z,7.03
2018-09-30T07:53:47.566Z,5.27
2018-09-30T07:56:15.941Z,6.50
2018-09-30T07:58:44.319Z,7.53
2018-09-30T08:01:12.688Z,5.27
2018-09-30T08:03:41.068Z,7.90
2018-09-30T08:06:09.386Z,7.07
2018-09-30T08:08:37.753Z,7.40
2018-09-30T08:11:06.534Z,7.73
2018-09-30T08:13:34.908Z,7.10
2018-09-30T08:16:03.330Z,6.13
2018-09-30T08:18:31.844Z,4.20
2018-09-30T08:21:00.233Z,7.03
2018-09-30T08:23:29.098Z,6.47
2018-09-30T08:25:57.585Z,4.97
2018-09-30T08:28:25.964Z,10.30
2018-09-30T08:30:54.351Z,5.80
2018-09-30T08:33:22.750Z,6.70
2018-09-30T08:35:56.538Z,6.20
2018-09-30T08:38:31.785Z,4.33
2018-09-30T08:41:06.487Z,5.83
2018-09-30T08:43:37.246Z,8.70
2018-09-30T08:46:05.849Z,6.50
2018-09-30T08:48:34.286Z,5.23
2018-09-30T08:51:02.663Z,4.87
2018-09-30T08:53:30.998Z,5.27
2018-09-30T08:55:59.540Z,6.63
2018-09-30T08:58:28.634Z,6.47
2018-09-30T09:00:57.066Z,4.93
2018-09-30T09:03:25.999Z,5.27
2018-09-30T09:05:54.417Z,6.03
2018-09-30T09:08:22.795Z,4.97
2018-09-30T09:10:51.160Z,7.93
2018-09-30T09:13:19.468Z,8.13
2018-09-30T09:15:47.876Z,6.47
2018-09-30T09:18:16.334Z,4.23
2018-09-30T09:20:44.787Z,5.33
2018-09-30T09:23:13.189Z,5.73
2018-09-30T09:25:42.436Z,8.73
2018-09-30T09:28:11.595Z,4.03
2018-09-30T09:30:40.024Z,4.83
2018-09-30T09:33:08.475Z,5.37
2018-09-30T09:35:36.907Z,4.97
2018-09-30T09:38:05.519Z,5.83
2018-09-30T09:40:33.936Z,4.50
2018-09-30T09:43:02.743Z,4.67
2018-09-30T09:45:31.205Z,6.90
2018-09-30T09:47:59.637Z,7.80
2018-09-30T09:50:28.026Z,4.30
2018-09-30T09:52:56.644Z,6.33
2018-09-30T09:55:25.036Z,3.67
2018-09-30T09:57:53.368Z,4.30
2018-09-30T10:00:27.106Z,5.53
2018-09-30T10:02:55.487Z,6.03
2018-09-30T10:05:23.792Z,4.57
2018-09-30T10:07:52.111Z,7.60
2018-09-30T10:10:20.490Z,6.20
2018-09-30T10:12:48.975Z,5.07
2018-09-30T10:15:17.321Z,4.93
2018-09-30T10:17:45.707Z,7.27
2018-09-30T10:20:14.023Z,4.33
2018-09-30T10:22:42.404Z,7.57
2018-09-30T10:25:10.718Z,8.47
2018-09-30T10:27:39.076Z,8.47
2018-09-30T10:30:07.540Z,6.20
2018-09-30T10:32:35.866Z,5.27
2018-09-30T10:35:04.239Z,8.77
2018-09-30T10:37:32.540Z,5.50
2018-09-30T10:40:00.990Z,6.33
2018-09-30T10:42:29.559Z,8.23
2018-09-30T10:44:57.960Z,6.87
2018-09-30T10:47:26.262Z,6.30
2018-09-30T10:49:54.627Z,11.93
2018-09-30T10:52:22.958Z,4.43
2018-09-30T10:54:51.315Z,5.17
2018-09-30T10:57:19.648Z,5.90
2018-09-30T10:59:47.996Z,4.07
2018-09-30T11:02:16.317Z,4.00
2018-09-30T11:04:44.625Z,6.17
2018-09-30T11:07:12.951Z,10.73
2018-09-30T11:09:41.341Z,5.93
2018-09-30T11:12:09.667Z,6.90
2018-09-30T11:14:37.951Z,3.93
2018-09-30T11:17:06.494Z,6.33
2018-09-30T11:19:34.848Z,6.10
2018-09-30T11:22:03.186Z,5.90
2018-09-30T11:24:31.489Z,4.33
2018-09-30T11:26:59.875Z,6.53
2018-09-30T11:29:28.220Z,5.57
2018-09-30T11:31:56.594Z,6.87
2018-09-30T11:34:24.848Z,5.93
2018-09-30T11:36:53.186Z,5.50
2018-09-30T11:39:21.575Z,6.37
2018-09-30T11:41:49.960Z,9.70
2018-09-30T11:44:18.374Z,7.37
2018-09-30T11:46:46.794Z,5.80
2018-09-30T11:49:15.102Z,8.03
2018-09-30T11:51:43.407Z,5.03
2018-09-30T11:54:11.750Z,5.13
2018-09-30T11:56:40.097Z,5.77
2018-09-30T11:59:08.484Z,8.33
2018-09-30T12:01:36.802Z,6.07
2018-09-30T12:04:05.139Z,5.10
2018-09-30T12:06:33.498Z,7.53
2018-09-30T12:09:01.897Z,6.17
2018-09-30T12:11:30.240Z,6.93
2018-09-30T12:13:58.600Z,5.50
2018-09-30T12:16:26.932Z,7.17
2018-09-30T12:18:55.315Z,7.13
2018-09-30T12:21:23.747Z,7.93
2018-09-30T12:23:52.119Z,8.83
2018-09-30T12:26:20.536Z,9.10
2018-09-30T12:28:48.880Z,11.20
2018-09-30T12:31:17.224Z,14.93
2018-09-30T12:33:45.589Z,8.77
2018-09-30T12:36:14.011Z,4.80
2018-09-30T12:38:42.341Z,7.60
2018-09-30T12:41:10.754Z,7.37
2018-09-30T12:43:39.131Z,5.83
2018-09-30T12:46:07.574Z,5.57
2018-09-30T12:48:36.248Z,6.53
2018-09-30T12:51:04.651Z,7.30
2018-09-30T12:53:33.388Z,4.57
2018-09-30T12:56:01.916Z,7.10
2018-09-30T12:58:30.377Z,4.13
2018-09-30T13:00:58.747Z,4.77
2018-09-30T13:03:27.060Z,4.57
2018-09-30T13:05:55.422Z,5.90
2018-09-30T13:08:23.979Z,4.73
2018-09-30T13:10:52.351Z,5.60
2018-09-30T13:13:20.748Z,6.70
2018-09-30T13:15:49.412Z,7.23
2018-09-30T13:18:17.808Z,8.03
2018-09-30T13:20:46.512Z,4.23
2018-09-30T13:23:14.874Z,5.40
2018-09-30T13:25:49.607Z,6.80
2018-09-30T13:28:17.996Z,6.90
2018-09-30T13:30:46.340Z,5.83
2018-09-30T13:33:14.681Z,5.50
2018-09-30T13:35:43.020Z,5.17
2018-09-30T13:38:11.383Z,5.57
2018-09-30T13:40:39.925Z,4.90
2018-09-30T13:43:08.251Z,4.77
2018-09-30T13:45:36.611Z,4.07
2018-09-30T13:48:05.015Z,4.37
2018-09-30T13:50:33.401Z,3.60
2018-09-30T13:53:01.767Z,4.77
2018-09-30T13:55:30.106Z,7.70
2018-09-30T13:57:58.490Z,10.37
2018-09-30T14:00:26.928Z,9.33
2018-09-30T14:02:55.287Z,4.10
2018-09-30T14:05:23.631Z,8.40
2018-09-30T14:07:52.037Z,7.50
2018-09-30T14:10:20.783Z,6.80
2018-09-30T14:12:49.207Z,4.73
2018-09-30T14:15:17.568Z,11.77
2018-09-30T14:17:45.897Z,7.43
2018-09-30T14:20:14.223Z,5.60
2018-09-30T14:22:43.043Z,4.50
2018-09-30T14:25:12.624Z,5.23
2018-09-30T14:27:40.967Z,5.50
2018-09-30T14:30:09.340Z,5.60
2018-09-30T14:32:37.668Z,8.30
2018-09-30T14:35:06.131Z,6.17
2018-09-30T14:37:34.477Z,6.17
2018-09-30T14:40:02.856Z,5.70
2018-09-30T14:42:31.304Z,6.27
2018-09-30T14:44:59.677Z,6.33
2018-09-30T14:47:28.013Z,6.67
2018-09-30T14:49:56.382Z,4.47
2018-09-30T14:52:24.791Z,5.90
2018-09-30T14:54:53.145Z,4.63
2018-09-30T14:57:21.502Z,6.37
2018-09-30T14:59:50.112Z,7.13
2018-09-30T15:02:18.339Z,5.07
2018-09-30T15:04:46.684Z,7.77
2018-09-30T15:07:15.077Z,8.00
2018-09-30T15:09:43.383Z,7.93
2018-09-30T15:12:11.967Z,6.70
2018-09-30T15:14:40.372Z,7.80
2018-09-30T15:17:08.708Z,7.93
2018-09-30T15:19:37.065Z,6.17
2018-09-30T15:22:05.429Z,5.57
2018-09-30T15:24:33.854Z,3.57
2018-09-30T15:27:02.172Z,5.60
2018-09-30T15:29:30.522Z,5.70
2018-09-30T15:32:11.415Z,4.80
2018-09-30T15:34:39.805Z,4.63
2018-09-30T15:37:08.129Z,6.73
2018-09-30T15:39:36.512Z,6.63
2018-09-30T15:42:04.873Z,6.93
2018-09-30T15:44:33.261Z,8.50
2018-09-30T15:47:01.729Z,6.73
2018-09-30T15:49:30.127Z,6.23
2018-09-30T15:51:58.472Z,4.27
2018-09-30T15:54:26.828Z,4.80
2018-09-30T15:56:55.137Z,5.90
2018-09-30T15:59:23.578Z,4.27
2018-09-30T16:01:51.919Z,5.77
2018-09-30T16:04:20.256Z,8.40
2018-09-30T16:06:48.614Z,7.87
2018-09-30T16:09:16.961Z,7.30
2018-09-30T16:11:45.339Z,8.07
2018-09-30T16:14:13.743Z,6.83
2018-09-30T16:16:42.047Z,4.77
2018-09-30T16:19:10.364Z,5.20
2018-09-30T16:21:38.731Z,5.50
2018-09-30T16:24:07.134Z,5.57
2018-09-30T16:26:35.454Z,4.87
2018-09-30T16:29:03.860Z,8.27
2018-09-30T16:31:32.223Z,6.13
2018-09-30T16:34:06.974Z,5.73
2018-09-30T16:36:35.303Z,6.17
2018-09-30T16:39:04.640Z,6.10
2018-09-30T16:41:33.163Z,6.03
2018-09-30T16:44:01.500Z,5.30
2018-09-30T16:46:29.899Z,6.13
2018-09-30T16:48:58.396Z,10.13
2018-09-30T16:51:26.814Z,16.17
2018-09-30T16:53:55.260Z,28.73
2018-09-30T16:56:23.716Z,16.67
2018-09-30T16:58:52.076Z,8.83
2018-09-30T17:01:20.921Z,5.70
2018-09-30T17:03:50.046Z,6.87
2018-09-30T17:06:18.898Z,7.13
2018-09-30T17:08:47.856Z,5.57
2018-09-30T17:11:16.447Z,7.17
2018-09-30T17:13:44.895Z,5.43
2018-09-30T17:16:13.277Z,6.80
2018-09-30T17:18:41.709Z,10.03
2018-09-30T17:21:10.172Z,11.73
2018-09-30T17:23:38.662Z,10.30
2018-09-30T17:26:07.168Z,6.57
2018-09-30T17:28:35.912Z,6.23
2018-09-30T17:31:04.277Z,6.67
2018-09-30T17:33:32.689Z,7.33
2018-09-30T17:36:01.039Z,7.60
2018-09-30T17:38:29.412Z,5.23
2018-09-30T17:40:57.825Z,5.10
2018-09-30T17:43:26.255Z,6.30
2018-09-30T17:45:54.643Z,6.03
2018-09-30T17:48:23.144Z,11.17
2018-09-30T17:50:51.544Z,8.00
2018-09-30T17:53:19.896Z,15.53
2018-09-30T17:55:48.246Z,78.77
2018-09-30T17:58:16.669Z,63.27
2018-09-30T18:00:45.068Z,26.33
2018-09-30T18:03:13.543Z,11.50
2018-09-30T18:05:42.076Z,7.83
2018-09-30T18:08:10.426Z,9.20
2018-09-30T18:10:38.848Z,7.90
2018-09-30T18:13:07.305Z,28.03
2018-09-30T18:15:35.713Z,26.93
2018-09-30T18:18:04.092Z,11.10
2018-09-30T18:20:32.622Z,8.03
2018-09-30T18:23:01.334Z,9.87
2018-09-30T18:25:29.659Z,10.10
2018-09-30T18:27:58.021Z,7.47
2018-09-30T18:30:26.335Z,10.43
2018-09-30T18:32:54.668Z,7.57
2018-09-30T18:35:25.188Z,10.87
2018-09-30T18:37:53.676Z,10.07
2018-09-30T18:40:22.201Z,11.60
2018-09-30T18:42:51.481Z,12.90
2018-09-30T18:45:19.874Z,10.30
2018-09-30T18:47:48.304Z,7.33
2018-09-30T18:50:16.755Z,8.93
2018-09-30T18:52:45.216Z,8.97
2018-09-30T18:55:13.568Z,7.43
2018-09-30T18:57:41.957Z,11.60
2018-09-30T19:00:10.391Z,10.13
2018-09-30T19:02:40.873Z,13.90
2018-09-30T19:05:09.228Z,7.47
2018-09-30T19:07:44.490Z,9.90
2018-09-30T19:10:13.001Z,8.93
2018-09-30T19:12:42.491Z,8.50
2018-09-30T19:15:27.628Z,12.60
2018-09-30T19:18:04.066Z,9.00
2018-09-30T19:20:42.527Z,9.07
2018-09-30T19:23:17.244Z,12.07
2018-09-30T19:25:45.640Z,8.87
2018-09-30T19:28:14.294Z,7.93
2018-09-30T19:30:42.787Z,10.67
2018-09-30T19:33:11.430Z,8.43
2018-09-30T19:35:39.865Z,18.03
2018-09-30T19:38:08.250Z,10.97
2018-09-30T19:40:36.766Z,9.10
2018-09-30T19:43:05.204Z,10.23
2018-09-30T19:45:33.712Z,9.97
2018-09-30T19:48:02.172Z,11.43
2018-09-30T19:50:30.897Z,9.27
2018-09-30T19:52:59.514Z,8.40
2018-09-30T19:55:28.155Z,10.37
2018-09-30T19:57:56.774Z,9.40
2018-09-30T20:00:25.164Z,16.80
2018-09-30T20:02:53.655Z,38.53
2018-09-30T20:05:22.059Z,35.03
2018-09-30T20:07:50.425Z,35.63
2018-09-30T20:10:19.131Z,31.33
2018-09-30T20:12:47.792Z,25.73
2018-09-30T20:15:16.220Z,16.50
2018-09-30T20:17:44.889Z,17.27
2018-09-30T20:20:13.491Z,17.13
2018-09-30T20:22:42.139Z,17.03
2018-09-30T20:25:10.773Z,15.63
2018-09-30T20:27:40.000Z,14.87
2018-09-30T20:30:08.894Z,12.27
2018-09-30T20:32:37.550Z,12.20
2018-09-30T20:35:05.691Z,10.87
2018-09-30T20:37:34.221Z,9.47
2018-09-30T20:40:03.084Z,10.83
2018-09-30T20:42:31.578Z,8.90
2018-09-30T20:44:59.992Z,12.13
2018-09-30T20:47:28.668Z,11.03
2018-09-30T20:49:57.324Z,12.00
2018-09-30T20:52:25.913Z,10.60
2018-09-30T20:54:54.675Z,13.17
2018-09-30T20:57:23.406Z,12.60
2018-09-30T20:59:52.360Z,12.43
2018-09-30T21:02:20.884Z,11.27
2018-09-30T21:04:49.317Z,11.13
2018-09-30T21:07:17.672Z,9.07
2018-09-30T21:09:46.022Z,12.00
2018-09-30T21:12:14.423Z,13.93
2018-09-30T21:14:42.810Z,11.60
2018-09-30T21:17:11.180Z,9.83
2018-09-30T21:19:39.536Z,10.63
2018-09-30T21:22:07.942Z,10.27
2018-09-30T21:24:36.287Z,10.77
2018-09-30T21:27:04.747Z,18.50
2018-09-30T21:29:33.220Z,9.87
2018-09-30T21:32:01.641Z,11.40
2018-09-30T21:34:30.038Z,10.37
2018-09-30T21:36:58.692Z,11.00
2018-09-30T21:39:27.102Z,10.57
2018-09-30T21:41:55.501Z,10.20
2018-09-30T21:44:23.919Z,13.10
2018-09-30T21:46:52.360Z,16.97
2018-09-30T21:49:20.806Z,11.83
2018-09-30T21:51:49.193Z,15.57
2018-09-30T21:54:17.571Z,12.10
2018-09-30T21:56:45.991Z,10.33
2018-09-30T21:59:14.436Z,9.43
2018-09-30T22:01:45.022Z,10.50
2018-09-30T22:04:13.359Z,10.03
2018-09-30T22:06:41.697Z,10.13
2018-09-30T22:09:10.126Z,12.07
2018-09-30T22:11:38.524Z,13.33
2018-09-30T22:14:06.993Z,11.90
2018-09-30T22:16:36.701Z,10.33
2018-09-30T22:19:05.122Z,12.60
2018-09-30T22:21:33.538Z,11.17
2018-09-30T22:24:06.102Z,13.37
2018-09-30T22:26:34.584Z,8.97
2018-09-30T22:29:03.985Z,11.30
2018-09-30T22:31:36.466Z,10.13
2018-09-30T22:34:04.830Z,11.37
2018-09-30T22:36:35.295Z,11.73
2018-09-30T22:39:13.403Z,12.50
2018-09-30T22:41:48.508Z,10.00
2018-09-30T22:44:17.980Z,9.67
2018-09-30T22:46:47.289Z,10.57
2018-09-30T22:49:15.859Z,8.80
2018-09-30T22:51:44.352Z,9.17
2018-09-30T22:54:21.467Z,10.17
2018-09-30T22:56:54.744Z,14.47
2018-09-30T22:59:24.190Z,7.30
2018-09-30T23:01:58.735Z,9.23
2018-09-30T23:04:32.180Z,12.00
2018-09-30T23:07:02.536Z,8.67
2018-09-30T23:09:33.029Z,12.13
2018-09-30T23:12:01.440Z,13.37
2018-09-30T23:14:34.348Z,11.70
2018-09-30T23:17:02.875Z,9.20
2018-09-30T23:19:31.612Z,9.17
2018-09-30T23:21:59.935Z,8.40
2018-09-30T23:24:29.392Z,12.10
2018-09-30T23:26:57.856Z,7.87
2018-09-30T23:29:26.214Z,9.93
2018-09-30T23:31:54.594Z,10.90
2018-09-30T23:34:24.955Z,8.93
2018-09-30T23:36:54.405Z,9.57
2018-09-30T23:39:22.886Z,10.20
2018-09-30T23:41:51.276Z,7.73
2018-09-30T23:44:19.668Z,9.43
2018-09-30T23:46:50.141Z,7.53
2018-09-30T23:49:18.597Z,9.30
2018-09-30T23:51:46.935Z,10.83
2018-09-30T23:54:15.335Z,9.30
2018-09-30T23:56:44.798Z,11.47
2018-09-30T23:59:13.216Z,7.10
